Temp: 4.3°C   Baro: 1017.2mb
  Wind: 0.0mph   Dir: NNW (342°)
  Rain: 0.0mm (0.0mm/hr)
  Solar: 0W/m2  Hum: 83%

Historic data

Bath Spa Weather Station Historical Data
Daily Summary for June 4, 2021 Units:  Metric    English   Both
Daily Weekly Monthly Yearly Custom
  High: Low: Average:
Temperature: 9.8 °C 1 °C 5.7 °C
Dew Point: 5.8 °C 0.2 °C 3.5 °C
Humidity: 91% 70.8% 83%
Wind Speed: 17.4km/h 0km/h 4km/h
Wind Gust: 27.4km/h - -
Wind- - NW
Pressure: 1023.9 hPa 1012.4 hPa -
Precipitation: 0 mm    
Historical Graphs
 
 
Tabular Data for June 4, 2021
Time Temperature Dew Point Pressure Wind Wind Speed Wind Gust Humidity Rainfall Rate (Hourly) solar
00:04 7.2 °C 5.5 °C 1012.4 hPa North 6.1 km/h 12.9 km/h 86% 0 mm 0 W/m2
00:09 7.2 °C 5.4 °C 1012.4 hPa North 5 km/h 12.9 km/h 86% 0 mm 0 W/m2
00:14 7.1 °C 5.4 °C 1012.4 hPa North 5.6 km/h 12.9 km/h 86% 0 mm 0 W/m2
00:18 7 °C 5.3 °C 1012.4 hPa North 4.8 km/h 8 km/h 86% 0 mm 0 W/m2
00:24 6.9 °C 5.2 °C 1012.8 hPa North 4.2 km/h 9.7 km/h 86% 0 mm 0 W/m2
00:29 6.8 °C 5.1 °C 1012.8 hPa North 4.3 km/h 12.9 km/h 86% 0 mm 0 W/m2
00:34 6.7 °C 4.9 °C 1012.8 hPa North 5.3 km/h 12.9 km/h 86% 0 mm 0 W/m2
00:39 6.6 °C 5.1 °C 1012.8 hPa North 4.7 km/h 8 km/h 86.8% 0 mm 0 W/m2
00:44 6.6 °C 5.1 °C 1012.8 hPa North 4.5 km/h 8 km/h 87% 0 mm 0 W/m2
00:49 6.6 °C 5.1 °C 1012.8 hPa North 5.1 km/h 11.3 km/h 87% 0 mm 0 W/m2
00:54 6.6 °C 5.1 °C 1012.8 hPa North 4.2 km/h 8 km/h 87% 0 mm 0 W/m2
00:59 6.6 °C 5.1 °C 1012.8 hPa North 3.4 km/h 8 km/h 87.2% 0 mm 0 W/m2
01:04 6.6 °C 5.2 °C 1012.8 hPa North 6 km/h 9.7 km/h 88% 0 mm 0 W/m2
01:09 6.6 °C 5.2 °C 1012.8 hPa North 2.4 km/h 9.7 km/h 88% 0 mm 0 W/m2
01:14 6.6 °C 5.2 °C 1012.8 hPa North 4 km/h 8 km/h 88% 0 mm 0 W/m2
01:19 6.6 °C 5.2 °C 1012.8 hPa North 4.7 km/h 6.4 km/h 88% 0 mm 0 W/m2
01:24 6.5 °C 5.1 °C 1012.8 hPa North 2.6 km/h 8 km/h 87.4% 0 mm 0 W/m2
01:29 6.4 °C 4.9 °C 1012.8 hPa North 3.5 km/h 9.7 km/h 87.2% 0 mm 0 W/m2
01:34 6.2 °C 4.9 °C 1013.1 hPa North 3.4 km/h 6.4 km/h 88% 0 mm 0 W/m2
01:39 6 °C 4.7 °C 1013.1 hPa North 1.4 km/h 4.8 km/h 88% 0 mm 0 W/m2
01:44 5.8 °C 4.6 °C 1013.1 hPa North 0.8 km/h 3.2 km/h 88% 0 mm 0 W/m2
01:49 5.7 °C 4.4 °C 1012.8 hPa North 2.9 km/h 4.8 km/h 88% 0 mm 0 W/m2
01:54 5.6 °C 4.3 °C 1012.8 hPa North 0.3 km/h 3.2 km/h 88.2% 0 mm 0 W/m2
01:59 5.6 °C 4.3 °C 1013.1 hPa North 1.8 km/h 8 km/h 88.8% 0 mm 0 W/m2
02:04 5.7 °C 4.4 °C 1013.1 hPa North 3.9 km/h 6.4 km/h 89% 0 mm 0 W/m2
02:09 5.7 °C 4.6 °C 1013.1 hPa North 3.9 km/h 8 km/h 89% 0 mm 0 W/m2
02:14 5.8 °C 4.6 °C 1013.1 hPa North 4.5 km/h 9.7 km/h 89% 0 mm 0 W/m2
02:19 5.8 °C 4.6 °C 1013.1 hPa North 2.7 km/h 8 km/h 89% 0 mm 0 W/m2
02:24 5.8 °C 4.6 °C 1013.1 hPa North 2.7 km/h 9.7 km/h 89% 0 mm 0 W/m2
02:29 5.9 °C 4.7 °C 1013.1 hPa North 2.6 km/h 9.7 km/h 89% 0 mm 0 W/m2
02:34 5.8 °C 4.7 °C 1013.1 hPa North 2.7 km/h 4.8 km/h 89% 0 mm 0 W/m2
02:39 5.8 °C 4.6 °C 1013.1 hPa North 2.1 km/h 6.4 km/h 89% 0 mm 0 W/m2
02:44 5.8 °C 4.6 °C 1013.1 hPa North 3.2 km/h 6.4 km/h 89% 0 mm 0 W/m2
02:49 5.8 °C 4.6 °C 1013.1 hPa North 3.2 km/h 4.8 km/h 89% 0 mm 0 W/m2
02:54 5.7 °C 4.5 °C 1013.1 hPa North 0.6 km/h 4.8 km/h 89% 0 mm 0 W/m2
02:59 5.7 °C 4.5 °C 1013.1 hPa North 0.6 km/h 3.2 km/h 89% 0 mm 0 W/m2
03:04 5.7 °C 4.5 °C 1013.4 hPa North 0.8 km/h 4.8 km/h 89% 0 mm 0 W/m2
03:09 5.7 °C 4.4 °C 1013.4 hPa North 2.9 km/h 4.8 km/h 89% 0 mm 0 W/m2
03:14 5.7 °C 4.4 °C 1013.4 hPa North 4.3 km/h 9.7 km/h 89% 0 mm 0 W/m2
03:19 5.7 °C 4.4 °C 1013.4 hPa North 3.7 km/h 8 km/h 88% 0 mm 0 W/m2
03:24 5.7 °C 4.4 °C 1013.4 hPa North 2.3 km/h 4.8 km/h 88% 0 mm 0 W/m2
03:29 5.7 °C 4.4 °C 1013.4 hPa North 4 km/h 8 km/h 88% 0 mm 0 W/m2
03:34 5.8 °C 4.5 °C 1013.4 hPa North 1.8 km/h 4.8 km/h 88% 0 mm 0 W/m2
03:39 5.7 °C 4.4 °C 1013.4 hPa North 2.4 km/h 4.8 km/h 88% 0 mm 0 W/m2
03:44 5.7 °C 4.2 °C 1013.4 hPa North 2.9 km/h 6.4 km/h 87.2% 0 mm 0 W/m2
03:49 5.6 °C 4.1 °C 1013.4 hPa North 5.3 km/h 11.3 km/h 87% 0 mm 0 W/m2
03:54 5.6 °C 4.1 °C 1013.4 hPa North 4 km/h 9.7 km/h 87% 0 mm 0 W/m2
03:59 5.6 °C 4.1 °C 1013.4 hPa North 2.1 km/h 6.4 km/h 87% 0 mm 0 W/m2
04:04 5.4 °C 3.9 °C 1013.8 hPa North 3.9 km/h 6.4 km/h 87% 0 mm 0 W/m2
04:09 5.4 °C 3.9 °C 1013.8 hPa North 2.6 km/h 4.8 km/h 87% 0 mm 0 W/m2
04:14 5.3 °C 3.8 °C 1013.8 hPa North 1.4 km/h 6.4 km/h 87% 0 mm 0 W/m2
04:19 5.2 °C 3.7 °C 1013.8 hPa North 1 km/h 4.8 km/h 87% 0 mm 0 W/m2
04:24 5.1 °C 3.6 °C 1013.8 hPa North 1.4 km/h 3.2 km/h 87% 0 mm 0 W/m2
04:29 4.9 °C 3.4 °C 1014.1 hPa North 0.8 km/h 3.2 km/h 87% 0 mm 0 W/m2
04:34 4.8 °C 3.3 °C 1014.1 hPa North 0.8 km/h 1.6 km/h 87% 0 mm 0 W/m2
04:39 4.7 °C 3.2 °C 1014.1 hPa North 1.4 km/h 4.8 km/h 87% 0 mm 0 W/m2
04:44 4.6 °C 3.1 °C 1014.1 hPa North 1 km/h 3.2 km/h 87.2% 0 mm 0 W/m2
04:49 4.4 °C 3.1 °C 1014.1 hPa North 0.3 km/h 3.2 km/h 87.8% 0 mm 0 W/m2
04:54 4.3 °C 3.1 °C 1014.1 hPa Calm   1.6 km/h 88% 0 mm 0 W/m2
04:59 4.2 °C 2.8 °C 1014.4 hPa Calm   1.6 km/h 88% 0 mm 0 W/m2
05:04 3.9 °C 2.7 °C 1014.4 hPa Calm     88% 0 mm 0 W/m2
05:09 3.8 °C 2.6 °C 1014.4 hPa Calm     88% 0 mm 0 W/m2
05:14 3.7 °C 2.4 °C 1014.4 hPa Calm     88% 0 mm 0 W/m2
05:19 3.7 °C 2.4 °C 1014.4 hPa Calm     88.4% 0 mm 0 W/m2
05:23 3.6 °C 2.5 °C 1014.4 hPa Calm     89% 0 mm 0 W/m2
05:29 3.5 °C 2.4 °C 1014.8 hPa North 1.3 km/h 4.8 km/h 89% 0 mm 0 W/m2
05:34 3.4 °C 2.3 °C 1014.8 hPa North 0.8 km/h 4.8 km/h 89% 0 mm 0 W/m2
05:39 3.4 °C 2.3 °C 1014.8 hPa Calm   1.6 km/h 89% 0 mm 0 W/m2
05:44 3.3 °C 2.2 °C 1014.8 hPa Calm   1.6 km/h 89% 0 mm 0 W/m2
05:49 3.2 °C 2.2 °C 1014.8 hPa Calm   3.2 km/h 89% 0 mm 0 W/m2
05:54 3.3 °C 2.2 °C 1014.8 hPa Calm   1.6 km/h 89% 0 mm 0 W/m2
05:59 3.2 °C 2.2 °C 1014.8 hPa North 0.3 km/h 1.6 km/h 90% 0 mm 0 W/m2
06:04 3.2 °C 2.2 °C 1014.8 hPa North 2.1 km/h 6.4 km/h 90% 0 mm 0 W/m2
06:09 3.3 °C 2.3 °C 1014.8 hPa North 2.6 km/h 6.4 km/h 90% 0 mm 0 W/m2
06:14 3.6 °C 2.6 °C 1015.1 hPa North 1.4 km/h 6.4 km/h 90% 0 mm 0 W/m2
06:19 3.6 °C 2.6 °C 1015.1 hPa North 1.3 km/h 3.2 km/h 90% 0 mm 0 W/m2
06:23 3.6 °C 2.6 °C 1015.1 hPa North 0.8 km/h 3.2 km/h 90% 0 mm 0 W/m2
06:29 3.4 °C 2.4 °C 1015.1 hPa North 0.3 km/h 3.2 km/h 90% 0 mm 0 W/m2
06:34 3.3 °C 2.3 °C 1015.1 hPa Calm     90% 0 mm 0 W/m2
06:39 3.2 °C 2.2 °C 1015.1 hPa North 0.6 km/h 3.2 km/h 90% 0 mm 0 W/m2
06:44 3.2 °C 2.2 °C 1015.5 hPa Calm   1.6 km/h 90% 0 mm 0 W/m2
06:49 3.2 °C 2.2 °C 1015.5 hPa North 0.6 km/h 4.8 km/h 90% 0 mm 0 W/m2
06:54 3.3 °C 2.3 °C 1015.5 hPa North 0.8 km/h 4.8 km/h 90% 0 mm 0 W/m2
06:59 3.3 °C 2.3 °C 1015.1 hPa North 1.3 km/h 6.4 km/h 90% 0 mm 0 W/m2
07:04 3.4 °C 2.4 °C 1015.5 hPa North 3.4 km/h 11.3 km/h 90% 0 mm 0 W/m2
07:09 3.6 °C 2.6 °C 1015.5 hPa North 1.4 km/h 8 km/h 90% 0 mm 0 W/m2
07:14 3.8 °C 2.8 °C 1015.5 hPa North 2.4 km/h 8 km/h 90% 0 mm 5 W/m2
07:19 3.8 °C 2.8 °C 1015.5 hPa North 2.6 km/h 9.7 km/h 90% 0 mm 7 W/m2
07:24 3.8 °C 2.8 °C 1015.8 hPa North 3.4 km/h 8 km/h 90% 0 mm 9 W/m2
07:29 4 °C 3 °C 1015.8 hPa North 4.2 km/h 8 km/h 90% 0 mm 11 W/m2
07:34 4.2 °C 3.2 °C 1015.8 hPa North 4 km/h 11.3 km/h 90% 0 mm 12 W/m2
07:39 4.4 °C 3.3 °C 1015.8 hPa North 4.7 km/h 8 km/h 89.4% 0 mm 14 W/m2
07:44 4.5 °C 3.3 °C 1016.1 hPa North 4.5 km/h 12.9 km/h 88.8% 0 mm 14 W/m2
07:49 4.7 °C 3.3 °C 1016.1 hPa North 4.7 km/h 9.7 km/h 88% 0 mm 16 W/m2
07:54 4.8 °C 3.3 °C 1016.1 hPa North 6 km/h 11.3 km/h 87% 0 mm 18 W/m2
07:59 4.8 °C 3.3 °C 1016.1 hPa North 6.8 km/h 12.9 km/h 86.6% 0 mm 19 W/m2
08:04 4.9 °C 3.2 °C 1016.1 hPa North 5.3 km/h 11.3 km/h 86% 0 mm 21 W/m2
08:09 5 °C 3.3 °C 1016.5 hPa North 9 km/h 14.5 km/h 86% 0 mm 28 W/m2
08:14 5.1 °C 3.3 °C 1016.5 hPa North 6.6 km/h 12.9 km/h 85% 0 mm 37 W/m2
08:19 5.2 °C 3.3 °C 1016.5 hPa North 9.7 km/h 16.1 km/h 85% 0 mm 46 W/m2
08:24 5.2 °C 3.4 °C 1016.5 hPa NNW 7.7 km/h 14.5 km/h 85% 0 mm 51 W/m2
08:29 5.3 °C 3.5 °C 1016.5 hPa NNW 8.4 km/h 12.9 km/h 85% 0 mm 54 W/m2
08:34 5.3 °C 3.5 °C 1016.5 hPa NNW 8.4 km/h 12.9 km/h 85% 0 mm 56 W/m2
08:39 5.4 °C 3.6 °C 1016.5 hPa NNW 7.2 km/h 14.5 km/h 84.8% 0 mm 56 W/m2
08:44 5.6 °C 3.6 °C 1016.8 hPa NNW 11.4 km/h 16.1 km/h 84% 0 mm 54 W/m2
08:49 5.6 °C 3.6 °C 1016.8 hPa NNW 9.8 km/h 17.7 km/h 84% 0 mm 65 W/m2
08:54 5.7 °C 3.7 °C 1016.8 hPa NNW 4.3 km/h 12.9 km/h 84% 0 mm 67 W/m2
08:59 5.8 °C 3.8 °C 1016.8 hPa NNW 7.1 km/h 16.1 km/h 83.8% 0 mm 81 W/m2
09:04 5.9 °C 3.7 °C 1016.8 hPa NW 8.4 km/h 17.7 km/h 83% 0 mm 93 W/m2
09:09 5.9 °C 3.8 °C 1016.8 hPa NW 8.7 km/h 17.7 km/h 83% 0 mm 109 W/m2
09:14 6.1 °C 3.9 °C 1016.8 hPa NW 5.5 km/h 17.7 km/h 83% 0 mm 123 W/m2
09:19 6.3 °C 4 °C 1016.8 hPa NW 3.9 km/h 12.9 km/h 82.6% 0 mm 135 W/m2
09:22 6.3 °C 3.9 °C 1017.2 hPa NW 5.8 km/h 12.9 km/h 82% 0 mm 144 W/m2
09:29 6.3 °C 3.9 °C 1017.2 hPa NW 7.9 km/h 16.1 km/h 82% 0 mm 160 W/m2
09:34 6.6 °C 4.1 °C 1017.2 hPa NW 6.6 km/h 14.5 km/h 81.2% 0 mm 171 W/m2
09:39 6.7 °C 4.2 °C 1017.2 hPa NW 7.6 km/h 12.9 km/h 81% 0 mm 181 W/m2
09:44 6.7 °C 4.2 °C 1017.2 hPa NW 9.7 km/h 20.9 km/h 81% 0 mm 192 W/m2
09:49 6.8 °C 4.3 °C 1017.2 hPa NW 7.7 km/h 12.9 km/h 81% 0 mm 204 W/m2
09:53 6.9 °C 4.3 °C 1017.2 hPa NW 6.8 km/h 14.5 km/h 80.5% 0 mm 211 W/m2
09:59 7 °C 4.3 °C 1017.2 hPa NNW 6 km/h 11.3 km/h 80.2% 0 mm 221 W/m2
10:04 6.9 °C 4.3 °C 1017.2 hPa NW 13.2 km/h 20.9 km/h 80% 0 mm 232 W/m2
10:09 7.1 °C 4.4 °C 1017.2 hPa NNW 7.9 km/h 20.9 km/h 80% 0 mm 241 W/m2
10:14 7.2 °C 4.4 °C 1017.5 hPa NNW 8.5 km/h 17.7 km/h 79.6% 0 mm 250 W/m2
10:19 7.2 °C 4.4 °C 1017.5 hPa NNW 10.3 km/h 17.7 km/h 79.4% 0 mm 258 W/m2
10:23 7.4 °C 4.5 °C 1017.5 hPa North 7.6 km/h 17.7 km/h 79% 0 mm 265 W/m2
10:29 7.8 °C 4.9 °C 1017.5 hPa North 3.1 km/h 11.3 km/h 79.4% 0 mm 272 W/m2
10:34 7.9 °C 4.8 °C 1017.5 hPa North 5.8 km/h 16.1 km/h 78% 0 mm 281 W/m2
10:39 8 °C 4.9 °C 1017.8 hPa NNW 2.7 km/h 16.1 km/h 78% 0 mm 295 W/m2
10:44 8.2 °C 5.1 °C 1017.8 hPa North 6 km/h 16.1 km/h 77.8% 0 mm 329 W/m2
10:49 8 °C 4.7 °C 1017.8 hPa North 8.5 km/h 17.7 km/h 77% 0 mm 329 W/m2
10:54 7.9 °C 4.8 °C 1017.5 hPa NNW 3.7 km/h 16.1 km/h 78% 0 mm 318 W/m2
10:59 8.3 °C 5 °C 1017.5 hPa NNW 6.8 km/h 14.5 km/h 77.2% 0 mm 315 W/m2
11:04 8.2 °C 4.9 °C 1017.5 hPa NNW 10.1 km/h 20.9 km/h 77% 0 mm 325 W/m2
11:09 8.2 °C 4.9 °C 1017.8 hPa North 9 km/h 20.9 km/h 77% 0 mm 343 W/m2
11:14 8.2 °C 4.9 °C 1017.8 hPa North 5.8 km/h 17.7 km/h 77% 0 mm 336 W/m2
11:19 8.5 °C 5.2 °C 1017.8 hPa NNW 5.8 km/h 16.1 km/h 77% 0 mm 359 W/m2
11:24 8.6 °C 5.1 °C 1017.8 hPa NNW 6.9 km/h 16.1 km/h 76% 0 mm 359 W/m2
11:29 8.6 °C 5.1 °C 1017.8 hPa NNW 7.1 km/h 16.1 km/h 76% 0 mm 350 W/m2
11:34 8.5 °C 4.9 °C 1017.8 hPa NNW 5.6 km/h 20.9 km/h 75.5% 0 mm 352 W/m2
11:39 8.6 °C 5 °C 1017.8 hPa North 14.5 km/h 27.4 km/h 75.6% 0 mm 385 W/m2
11:44 8.4 °C 4.9 °C 1017.8 hPa North 6.6 km/h 27.4 km/h 75.8% 0 mm 364 W/m2
11:49 8.9 °C 5.4 °C 1017.8 hPa NNE 7.2 km/h 16.1 km/h 75.8% 0 mm 387 W/m2
11:54 9.1 °C 5.3 °C 1017.8 hPa North 13.8 km/h 24.1 km/h 74.8% 0 mm 378 W/m2
11:59 8.9 °C 5.2 °C 1017.8 hPa North 10.6 km/h 17.7 km/h 75% 0 mm 378 W/m2
12:04 8.9 °C 5.2 °C 1017.8 hPa NNE 13.4 km/h 24.1 km/h 75% 0 mm 380 W/m2
12:09 8.9 °C 5.2 °C 1017.8 hPa NNW 9 km/h 19.3 km/h 75% 0 mm 404 W/m2
12:14 9.3 °C 5.6 °C 1017.8 hPa North 11.3 km/h 22.5 km/h 75% 0 mm 399 W/m2
12:19 9.1 °C 5.3 °C 1017.8 hPa North 11.3 km/h 22.5 km/h 74.4% 0 mm 392 W/m2
12:24 9.2 °C 5.4 °C 1017.8 hPa NNW 8 km/h 22.5 km/h 74.8% 0 mm 362 W/m2
12:29 9.2 °C 5.3 °C 1017.8 hPa NNW 8.5 km/h 19.3 km/h 74% 0 mm 369 W/m2
12:34 9.4 °C 5.6 °C 1017.8 hPa NW 9.3 km/h 19.3 km/h 74.4% 0 mm 367 W/m2
12:39 9.3 °C 5.4 °C 1017.8 hPa NNW 11.6 km/h 24.1 km/h 73.6% 0 mm 359 W/m2
12:44 9.2 °C 5.2 °C 1017.8 hPa North 17.4 km/h 25.7 km/h 73.8% 0 mm 362 W/m2
12:49 9.3 °C 5.4 °C 1017.8 hPa NNE 7.2 km/h 24.1 km/h 74.4% 0 mm 355 W/m2
12:54 9.7 °C 5.8 °C 1018.2 hPa NNE 6.8 km/h 16.1 km/h 74% 0 mm 357 W/m2
12:59 9.8 °C 5.8 °C 1018.2 hPa NNW 10 km/h 19.3 km/h 73.2% 0 mm 350 W/m2
13:04 9.6 °C 5.4 °C 1018.2 hPa North 10.9 km/h 20.9 km/h 72.8% 0 mm 348 W/m2
13:09 9.4 °C 5.3 °C 1018.2 hPa North 14.5 km/h 19.3 km/h 73% 0 mm 348 W/m2
13:14 9.4 °C 5.3 °C 1018.2 hPa NNE 11.9 km/h 19.3 km/h 73% 0 mm 341 W/m2
13:19 9.3 °C 5.3 °C 1018.2 hPa NW 4.7 km/h 16.1 km/h 73.4% 0 mm 373 W/m2
13:24 9.8 °C 5.8 °C 1018.2 hPa North 10.9 km/h 19.3 km/h 73.4% 0 mm 357 W/m2
13:29 9.5 °C 5.4 °C 1018.2 hPa NNW 9.8 km/h 20.9 km/h 73% 0 mm 144 W/m2
13:34 9.1 °C 5 °C 1018.2 hPa NW 10.6 km/h 24.1 km/h 73% 0 mm 65 W/m2
13:39 9 °C 4.9 °C 1018.2 hPa NNE 5.8 km/h 16.1 km/h 73% 0 mm 67 W/m2
13:44 8.9 °C 4.9 °C 1018.2 hPa NNW 7.1 km/h 16.1 km/h 73.6% 0 mm 105 W/m2
13:49 9.1 °C 5.1 °C 1018.2 hPa NNW 7.7 km/h 20.9 km/h 73.8% 0 mm 155 W/m2
13:54 9.1 °C 5 °C 1018.2 hPa NNW 11.1 km/h 17.7 km/h 73% 0 mm 302 W/m2
13:59 9.3 °C 5.2 °C 1018.2 hPa NNW 14.2 km/h 19.3 km/h 73% 0 mm 299 W/m2
14:04 9.3 °C 5.1 °C 1018.5 hPa NNW 7.1 km/h 20.9 km/h 72.4% 0 mm 287 W/m2
14:09 9.3 °C 5.1 °C 1018.5 hPa NNW 13.2 km/h 20.9 km/h 72.3% 0 mm 267 W/m2
14:14 9.3 °C 5.1 °C 1018.5 hPa NNW 9 km/h 19.3 km/h 72% 0 mm 267 W/m2
14:19 9.4 °C 5.1 °C 1018.5 hPa NNW 6.9 km/h 20.9 km/h 72% 0 mm 264 W/m2
14:24 9.6 °C 5.3 °C 1018.5 hPa NNW 10.6 km/h 17.7 km/h 72% 0 mm 251 W/m2
14:29 9.7 °C 5.3 °C 1018.5 hPa NNW 11.3 km/h 20.9 km/h 71.8% 0 mm 241 W/m2
14:34 9.6 °C 5.1 °C 1018.5 hPa North 16.1 km/h 25.7 km/h 71% 0 mm 229 W/m2
14:39 9.5 °C 5 °C 1018.5 hPa NNW 4.7 km/h 22.5 km/h 71% 0 mm 207 W/m2
14:44 9.6 °C 5.2 °C 1018.8 hPa North 13.8 km/h 20.9 km/h 71.4% 0 mm 202 W/m2
14:49 9.6 °C 5 °C 1018.8 hPa NNW 10.3 km/h 24.1 km/h 70.8% 0 mm 195 W/m2
14:54 9.6 °C 5.1 °C 1018.8 hPa North 8.4 km/h 19.3 km/h 71% 0 mm 183 W/m2
14:59 9.5 °C 5.2 °C 1018.8 hPa NNW 12.2 km/h 17.7 km/h 72% 0 mm 176 W/m2
15:04 9.3 °C 5 °C 1018.8 hPa NNW 8.7 km/h 17.7 km/h 72.2% 0 mm 149 W/m2
15:09 9.3 °C 5 °C 1018.8 hPa North 7.4 km/h 19.3 km/h 72.2% 0 mm 146 W/m2
15:14 9.3 °C 5 °C 1018.8 hPa North 5.1 km/h 12.9 km/h 72% 0 mm 132 W/m2
15:19 9.4 °C 5.1 °C 1018.8 hPa NNW 7.9 km/h 17.7 km/h 72% 0 mm 120 W/m2
15:24 9.3 °C 4.8 °C 1018.8 hPa North 10.6 km/h 17.7 km/h 71% 0 mm 107 W/m2
15:29 9.3 °C 4.8 °C 1019.2 hPa NNW 4 km/h 11.3 km/h 71.3% 0 mm 72 W/m2
15:34 9.3 °C 5 °C 1019.2 hPa North 4.7 km/h 11.3 km/h 72% 0 mm 62 W/m2
15:39 9.2 °C 4.8 °C 1019.2 hPa North 5.5 km/h 11.3 km/h 72% 0 mm 25 W/m2
15:44 8.9 °C 4.8 °C 1019.2 hPa North 3.2 km/h 8 km/h 73% 0 mm 42 W/m2
15:49 8.8 °C 4.8 °C 1019.2 hPa North 5.5 km/h 12.9 km/h 73.4% 0 mm 39 W/m2
15:54 8.7 °C 4.8 °C 1019.5 hPa North 3.9 km/h 9.7 km/h 74% 0 mm 33 W/m2
15:59 8.7 °C 4.8 °C 1019.5 hPa North 7.4 km/h 12.9 km/h 74% 0 mm 30 W/m2
16:04 8.7 °C 4.8 °C 1019.5 hPa North 3.9 km/h 8 km/h 74% 0 mm 18 W/m2
16:09 8.6 °C 4.7 °C 1019.5 hPa North 5.6 km/h 14.5 km/h 74% 0 mm 16 W/m2
16:14 8.5 °C 4.6 °C 1019.5 hPa North 5.3 km/h 12.9 km/h 74% 0 mm 14 W/m2
16:19 8.4 °C 4.5 °C 1019.5 hPa North 5.6 km/h 12.9 km/h 74% 0 mm 14 W/m2
16:24 8.3 °C 4.4 °C 1019.9 hPa North 5.8 km/h 12.9 km/h 74% 0 mm 16 W/m2
16:29 8.3 °C 4.3 °C 1019.9 hPa North 3.2 km/h 8 km/h 74% 0 mm 11 W/m2
16:34 8.2 °C 4.4 °C 1019.9 hPa North 4 km/h 11.3 km/h 74.8% 0 mm 7 W/m2
16:39 8.1 °C 4.3 °C 1020.2 hPa North 3.4 km/h 9.7 km/h 75% 0 mm 5 W/m2
16:44 7.9 °C 4.2 °C 1020.2 hPa North 2.6 km/h 6.4 km/h 75% 0 mm 0 W/m2
16:49 7.8 °C 4.1 °C 1020.2 hPa North 2.6 km/h 9.7 km/h 75% 0 mm 0 W/m2
16:54 7.7 °C 4.1 °C 1020.2 hPa North 1.6 km/h 6.4 km/h 75.3% 0 mm 0 W/m2
16:59 7.6 °C 4.1 °C 1020.2 hPa Calm   1.6 km/h 75.8% 0 mm 0 W/m2
17:04 7.6 °C 4.1 °C 1020.5 hPa North 0.3 km/h 1.6 km/h 76% 0 mm 0 W/m2
17:09 7.4 °C 3.9 °C 1020.5 hPa Calm   1.6 km/h 76% 0 mm 0 W/m2
17:14 7.2 °C 3.9 °C 1020.5 hPa North 0.8 km/h 3.2 km/h 77% 0 mm 0 W/m2
17:19 7 °C 3.7 °C 1020.5 hPa North 1 km/h 3.2 km/h 77.2% 0 mm 0 W/m2
17:24 6.8 °C 3.7 °C 1020.5 hPa North 1 km/h 3.2 km/h 78% 0 mm 0 W/m2
17:29 6.7 °C 3.6 °C 1020.5 hPa North 1.1 km/h 1.6 km/h 78.2% 0 mm 0 W/m2
17:34 6.4 °C 3.5 °C 1020.9 hPa North 0.3 km/h 1.6 km/h 79% 0 mm 0 W/m2
17:39 6.2 °C 3.2 °C 1020.9 hPa North 1.1 km/h 3.2 km/h 79% 0 mm 0 W/m2
17:44 5.8 °C 3.1 °C 1020.9 hPa North 1.8 km/h 3.2 km/h 79.6% 0 mm 0 W/m2
17:49 5.7 °C 2.9 °C 1020.9 hPa North 2.6 km/h 3.2 km/h 80% 0 mm 0 W/m2
17:54 5.4 °C 2.9 °C 1021.2 hPa North 1.8 km/h 3.2 km/h 81% 0 mm 0 W/m2
17:59 5.3 °C 2.8 °C 1021.2 hPa North 0.8 km/h 1.6 km/h 81% 0 mm 0 W/m2
18:04 5.2 °C 2.9 °C 1021.2 hPa North 0.3 km/h 1.6 km/h 82% 0 mm 0 W/m2
18:09 5.1 °C 2.8 °C 1021.2 hPa North 2.1 km/h 4.8 km/h 82.2% 0 mm 0 W/m2
18:14 4.9 °C 2.7 °C 1021.2 hPa North 1.4 km/h 3.2 km/h 83% 0 mm 0 W/m2
18:19 4.8 °C 2.7 °C 1021.6 hPa North 1.1 km/h 3.2 km/h 83.4% 0 mm 0 W/m2
18:24 4.7 °C 2.7 °C 1021.6 hPa North 2.9 km/h 4.8 km/h 84% 0 mm 0 W/m2
18:29 4.5 °C 2.5 °C 1021.6 hPa North 3.9 km/h 6.4 km/h 84.2% 0 mm 0 W/m2
18:34 4.4 °C 2.5 °C 1021.6 hPa North 3.9 km/h 6.4 km/h 84.6% 0 mm 0 W/m2
18:39 4.3 °C 2.5 °C 1021.6 hPa North 2.6 km/h 4.8 km/h 85% 0 mm 0 W/m2
18:44 4.2 °C 2.4 °C 1021.9 hPa North 0.8 km/h 3.2 km/h 85% 0 mm 0 W/m2
18:49 4.2 °C 2.3 °C 1021.9 hPa North 0.3 km/h 1.6 km/h 85% 0 mm 0 W/m2
18:54 4.1 °C 2.4 °C 1021.9 hPa Calm   1.6 km/h 85.8% 0 mm 0 W/m2
18:59 4 °C 2.4 °C 1021.9 hPa North 0.6 km/h 1.6 km/h 86% 0 mm 0 W/m2
19:04 3.8 °C 2.2 °C 1021.9 hPa North 2.9 km/h 4.8 km/h 86% 0 mm 0 W/m2
19:09 3.4 °C 1.8 °C 1021.9 hPa North 3.9 km/h 4.8 km/h 86% 0 mm 0 W/m2
19:14 3.3 °C 1.7 °C 1021.9 hPa North 1.8 km/h 4.8 km/h 86% 0 mm 0 W/m2
19:18 3.2 °C 1.7 °C 1022.2 hPa North 2.7 km/h 4.8 km/h 86.8% 0 mm 0 W/m2
19:24 3.2 °C 1.7 °C 1022.2 hPa North 3.2 km/h 4.8 km/h 87% 0 mm 0 W/m2
19:29 3.3 °C 1.8 °C 1022.2 hPa North 2.1 km/h 4.8 km/h 87% 0 mm 0 W/m2
19:34 3.2 °C 1.7 °C 1022.2 hPa North 0.6 km/h 3.2 km/h 87% 0 mm 0 W/m2
19:39 2.9 °C 1.5 °C 1022.2 hPa North 1.8 km/h 3.2 km/h 87.2% 0 mm 0 W/m2
19:44 2.8 °C 1.4 °C 1022.2 hPa North 1.4 km/h 3.2 km/h 87.6% 0 mm 0 W/m2
19:49 2.8 °C 1.5 °C 1022.2 hPa North 0.3 km/h 3.2 km/h 88% 0 mm 0 W/m2
19:54 2.8 °C 1.5 °C 1022.2 hPa North 1.8 km/h 3.2 km/h 88% 0 mm 0 W/m2
19:59 2.8 °C 1.4 °C 1022.2 hPa North 0.6 km/h 3.2 km/h 88% 0 mm 0 W/m2
20:04 2.7 °C 1.4 °C 1022.2 hPa North 0.3 km/h 1.6 km/h 88% 0 mm 0 W/m2
20:09 2.7 °C 1.4 °C 1022.2 hPa North 0.3 km/h 1.6 km/h 88% 0 mm 0 W/m2
20:14 2.7 °C 1.5 °C 1022.6 hPa Calm   1.6 km/h 88.5% 0 mm 0 W/m2
20:19 2.6 °C 1.3 °C 1022.6 hPa North 0.3 km/h 1.6 km/h 88% 0 mm 0 W/m2
20:24 2.6 °C 1.4 °C 1022.6 hPa Calm     88.8% 0 mm 0 W/m2
20:29 2.6 °C 1.5 °C 1022.6 hPa North 1.4 km/h 1.6 km/h 89% 0 mm 0 W/m2
20:34 2.6 °C 1.4 °C 1022.6 hPa Calm   1.6 km/h 89% 0 mm 0 W/m2
20:39 2.4 °C 1.3 °C 1022.6 hPa Calm     89% 0 mm 0 W/m2
20:44 2.4 °C 1.3 °C 1022.6 hPa Calm     89% 0 mm 0 W/m2
20:49 2.4 °C 1.3 °C 1022.6 hPa Calm   1.6 km/h 89% 0 mm 0 W/m2
20:54 2.6 °C 1.4 °C 1022.6 hPa Calm   1.6 km/h 89% 0 mm 0 W/m2
20:59 2.6 °C 1.5 °C 1022.9 hPa Calm     89% 0 mm 0 W/m2
21:04 2.6 °C 1.5 °C 1022.9 hPa North 0.3 km/h 1.6 km/h 89% 0 mm 0 W/m2
21:09 2.6 °C 1.5 °C 1022.9 hPa Calm   1.6 km/h 89% 0 mm 0 W/m2
21:14 2.6 °C 1.4 °C 1022.9 hPa Calm     89% 0 mm 0 W/m2
21:19 2.4 °C 1.3 °C 1022.9 hPa Calm     89% 0 mm 0 W/m2
21:24 2.4 °C 1.3 °C 1023.2 hPa Calm     89% 0 mm 0 W/m2
21:29 2.3 °C 1.3 °C 1023.2 hPa Calm     89.6% 0 mm 0 W/m2
21:34 2.3 °C 1.2 °C 1023.2 hPa Calm     89.6% 0 mm 0 W/m2
21:39 2.2 °C 1.1 °C 1023.2 hPa North 1.3 km/h 3.2 km/h 89.2% 0 mm 0 W/m2
21:44 1.9 °C 0.9 °C 1023.2 hPa North 0.3 km/h 3.2 km/h 90% 0 mm 0 W/m2
21:49 1.9 °C 0.9 °C 1023.2 hPa North 0.3 km/h 1.6 km/h 90% 0 mm 0 W/m2
21:54 1.9 °C 0.9 °C 1023.2 hPa North 1.4 km/h 3.2 km/h 90% 0 mm 0 W/m2
21:59 1.9 °C 0.9 °C 1023.2 hPa North 2.6 km/h 4.8 km/h 90% 0 mm 0 W/m2
22:04 1.9 °C 0.9 °C 1023.6 hPa Calm   4.8 km/h 90% 0 mm 0 W/m2
22:09 1.8 °C 0.8 °C 1023.6 hPa North 0.3 km/h 1.6 km/h 90% 0 mm 0 W/m2
22:14 1.8 °C 0.8 °C 1023.6 hPa North 0.3 km/h 1.6 km/h 90% 0 mm 0 W/m2
22:19 1.8 °C 0.8 °C 1023.6 hPa North 0.6 km/h 1.6 km/h 90% 0 mm 0 W/m2
22:24 1.7 °C 0.7 °C 1023.6 hPa Calm     90% 0 mm 0 W/m2
22:29 1.7 °C 0.7 °C 1023.6 hPa Calm     90% 0 mm 0 W/m2
22:34 1.6 °C 0.6 °C 1023.9 hPa Calm     90% 0 mm 0 W/m2
22:39 1.6 °C 0.7 °C 1023.9 hPa Calm     90.2% 0 mm 0 W/m2
22:44 1.5 °C 0.7 °C 1023.9 hPa Calm     91% 0 mm 0 W/m2
22:49 1.5 °C 0.7 °C 1023.9 hPa Calm   1.6 km/h 91% 0 mm 0 W/m2
22:54 1.4 °C 0.7 °C 1023.9 hPa Calm   1.6 km/h 91% 0 mm 0 W/m2
22:59 1.4 °C 0.6 °C 1023.9 hPa Calm   1.6 km/h 91% 0 mm 0 W/m2
23:04 1.4 °C 0.6 °C 1023.9 hPa Calm     91% 0 mm 0 W/m2
23:09 1.3 °C 0.5 °C 1023.9 hPa Calm     91% 0 mm 0 W/m2
23:14 1.3 °C 0.5 °C 1023.9 hPa North 0.6 km/h 3.2 km/h 91% 0 mm 0 W/m2
23:19 1.3 °C 0.5 °C 1023.9 hPa Calm     91% 0 mm 0 W/m2
23:24 1.3 °C 0.5 °C 1023.9 hPa Calm   1.6 km/h 91% 0 mm 0 W/m2
23:29 1.3 °C 0.5 °C 1023.9 hPa Calm     91% 0 mm 0 W/m2
23:34 1.2 °C 0.4 °C 1023.9 hPa Calm     91% 0 mm 0 W/m2
23:39 1.1 °C 0.3 °C 1023.9 hPa Calm     91% 0 mm 0 W/m2
23:44 1 °C 0.2 °C 1023.9 hPa North 0.6 km/h 1.6 km/h 91% 0 mm 0 W/m2
23:49 1 °C 0.2 °C 1023.9 hPa North 1.9 km/h 3.2 km/h 91% 0 mm 0 W/m2
23:54 1 °C 0.2 °C 1023.9 hPa North 1.8 km/h 3.2 km/h 91% 0 mm 0 W/m2
Bath Spa Weather
Compliments of Weather Underground - 2 mb